sensor_id;sensor_type;location;lat;lon;timestamp;pressure;altitude;pressure_sealevel;temperature;humidity
10261;BME280;5175;42.606;23.388;2022-09-09T00:02:18;94012.97;;;17.50;85.04
10261;BME280;5175;42.606;23.388;2022-09-09T00:04:52;94009.84;;;17.57;82.91
10261;BME280;5175;42.606;23.388;2022-09-09T00:07:40;94004.09;;;17.49;83.06
10261;BME280;5175;42.606;23.388;2022-09-09T00:10:15;94003.16;;;17.45;82.66
10261;BME280;5175;42.606;23.388;2022-09-09T00:12:53;93988.53;;;17.38;83.56
10261;BME280;5175;42.606;23.388;2022-09-09T00:15:24;94003.44;;;17.44;83.06
10261;BME280;5175;42.606;23.388;2022-09-09T00:17:56;94001.06;;;17.42;82.43
10261;BME280;5175;42.606;23.388;2022-09-09T00:20:30;94012.06;;;17.55;84.20
10261;BME280;5175;42.606;23.388;2022-09-09T00:23:04;94010.41;;;17.36;82.09
10261;BME280;5175;42.606;23.388;2022-09-09T00:25:41;93996.44;;;17.34;83.37
10261;BME280;5175;42.606;23.388;2022-09-09T00:28:16;93988.66;;;17.24;81.82
10261;BME280;5175;42.606;23.388;2022-09-09T00:30:46;93993.88;;;17.21;81.63
10261;BME280;5175;42.606;23.388;2022-09-09T00:33:15;93982.94;;;17.26;83.01
10261;BME280;5175;42.606;23.388;2022-09-09T00:35:44;93988.03;;;17.27;83.07
10261;BME280;5175;42.606;23.388;2022-09-09T00:38:15;93968.19;;;17.15;81.13
10261;BME280;5175;42.606;23.388;2022-09-09T00:40:49;93966.28;;;17.15;82.05
10261;BME280;5175;42.606;23.388;2022-09-09T00:43:26;93965.81;;;17.22;82.68
10261;BME280;5175;42.606;23.388;2022-09-09T00:46:24;93964.53;;;17.19;82.10
10261;BME280;5175;42.606;23.388;2022-09-09T00:49:02;93967.56;;;17.26;83.97
10261;BME280;5175;42.606;23.388;2022-09-09T00:51:42;93967.56;;;17.26;82.45
10261;BME280;5175;42.606;23.388;2022-09-09T00:57:16;93962.34;;;17.47;85.69
10261;BME280;5175;42.606;23.388;2022-09-09T00:59:48;93977.28;;;17.44;85.49
10261;BME280;5175;42.606;23.388;2022-09-09T01:02:26;93963.78;;;17.44;85.59
10261;BME280;5175;42.606;23.388;2022-09-09T01:04:55;93958.84;;;17.46;85.96
10261;BME280;5175;42.606;23.388;2022-09-09T01:07:27;93958.53;;;17.39;85.13
10261;BME280;5175;42.606;23.388;2022-09-09T01:09:57;93964.72;;;17.23;83.32
10261;BME280;5175;42.606;23.388;2022-09-09T01:12:32;93965.66;;;17.27;84.14
10261;BME280;5175;42.606;23.388;2022-09-09T01:15:11;93969.31;;;17.31;83.68
10261;BME280;5175;42.606;23.388;2022-09-09T01:17:46;93973.28;;;17.33;85.06
10261;BME280;5175;42.606;23.388;2022-09-09T01:20:20;93972.84;;;17.48;86.20
10261;BME280;5175;42.606;23.388;2022-09-09T01:23:02;93968.22;;;17.49;85.71
10261;BME280;5175;42.606;23.388;2022-09-09T01:26:22;93975.09;;;17.64;89.14
10261;BME280;5175;42.606;23.388;2022-09-09T01:28:52;93960.34;;;17.61;89.26
10261;BME280;5175;42.606;23.388;2022-09-09T01:31:23;93963.19;;;17.65;88.82
10261;BME280;5175;42.606;23.388;2022-09-09T01:33:53;93959.06;;;17.59;88.81
10261;BME280;5175;42.606;23.388;2022-09-09T01:36:26;93961.13;;;17.62;89.20
10261;BME280;5175;42.606;23.388;2022-09-09T01:38:54;93965.56;;;17.58;89.37
10261;BME280;5175;42.606;23.388;2022-09-09T01:41:22;93972.88;;;17.57;89.23
10261;BME280;5175;42.606;23.388;2022-09-09T01:43:49;93976.38;;;17.66;89.84
10261;BME280;5175;42.606;23.388;2022-09-09T01:46:18;93987.00;;;17.63;89.27
10261;BME280;5175;42.606;23.388;2022-09-09T01:48:48;93982.25;;;17.77;89.70
10261;BME280;5175;42.606;23.388;2022-09-09T01:51:16;93983.84;;;17.69;89.35
10261;BME280;5175;42.606;23.388;2022-09-09T01:53:43;93986.06;;;17.59;87.81
10261;BME280;5175;42.606;23.388;2022-09-09T01:56:19;93991.13;;;17.60;87.73
10261;BME280;5175;42.606;23.388;2022-09-09T01:59:00;93984.47;;;17.58;88.39
10261;BME280;5175;42.606;23.388;2022-09-09T02:01:39;93986.63;;;17.38;86.41
10261;BME280;5175;42.606;23.388;2022-09-09T02:04:18;93990.13;;;17.30;86.75
10261;BME280;5175;42.606;23.388;2022-09-09T02:06:53;93984.22;;;17.28;85.83
10261;BME280;5175;42.606;23.388;2022-09-09T02:09:23;93985.16;;;17.15;84.09
10261;BME280;5175;42.606;23.388;2022-09-09T02:11:57;93980.69;;;17.02;83.39
10261;BME280;5175;42.606;23.388;2022-09-09T02:14:30;93978.16;;;16.97;81.27
10261;BME280;5175;42.606;23.388;2022-09-09T02:17:03;93978.78;;;17.03;83.34
10261;BME280;5175;42.606;23.388;2022-09-09T02:19:37;93989.69;;;16.98;83.55
10261;BME280;5175;42.606;23.388;2022-09-09T02:22:05;93969.41;;;16.92;84.07
10261;BME280;5175;42.606;23.388;2022-09-09T02:24:35;93968.31;;;16.62;79.21
10261;BME280;5175;42.606;23.388;2022-09-09T02:27:04;93961.56;;;16.73;80.96
10261;BME280;5175;42.606;23.388;2022-09-09T02:29:38;93952.66;;;16.64;81.68
10261;BME280;5175;42.606;23.388;2022-09-09T02:32:10;93957.72;;;16.65;81.78
10261;BME280;5175;42.606;23.388;2022-09-09T02:34:40;93959.66;;;16.73;82.56
10261;BME280;5175;42.606;23.388;2022-09-09T02:37:09;93960.31;;;16.79;81.23
10261;BME280;5175;42.606;23.388;2022-09-09T02:39:37;93967.16;;;16.85;82.50
10261;BME280;5175;42.606;23.388;2022-09-09T02:42:04;93964.81;;;16.92;83.24
10261;BME280;5175;42.606;23.388;2022-09-09T02:44:32;93970.75;;;16.72;82.29
10261;BME280;5175;42.606;23.388;2022-09-09T02:47:10;93969.69;;;16.51;79.85
10261;BME280;5175;42.606;23.388;2022-09-09T02:49:51;93961.75;;;16.46;79.86
10261;BME280;5175;42.606;23.388;2022-09-09T02:52:26;93971.25;;;16.43;75.02
10261;BME280;5175;42.606;23.388;2022-09-09T02:55:01;93980.28;;;16.47;78.53
10261;BME280;5175;42.606;23.388;2022-09-09T02:57:31;93983.31;;;16.46;80.32
10261;BME280;5175;42.606;23.388;2022-09-09T02:59:59;93986.22;;;16.58;80.87
10261;BME280;5175;42.606;23.388;2022-09-09T03:02:28;93977.78;;;16.51;81.18
10261;BME280;5175;42.606;23.388;2022-09-09T03:04:55;93969.03;;;16.45;80.44
10261;BME280;5175;42.606;23.388;2022-09-09T03:07:23;93977.41;;;16.44;80.76
10261;BME280;5175;42.606;23.388;2022-09-09T03:09:50;93974.44;;;16.23;77.87
10261;BME280;5175;42.606;23.388;2022-09-09T03:12:17;93979.81;;;16.23;77.60
10261;BME280;5175;42.606;23.388;2022-09-09T03:14:44;93973.28;;;16.15;75.66
10261;BME280;5175;42.606;23.388;2022-09-09T03:17:12;93979.69;;;16.28;75.92
10261;BME280;5175;42.606;23.388;2022-09-09T03:19:40;93975.78;;;16.34;78.59
10261;BME280;5175;42.606;23.388;2022-09-09T03:22:09;93997.31;;;16.34;79.98
10261;BME280;5175;42.606;23.388;2022-09-09T03:24:36;93977.09;;;15.92;74.69
10261;BME280;5175;42.606;23.388;2022-09-09T03:27:03;93982.03;;;16.21;79.92
10261;BME280;5175;42.606;23.388;2022-09-09T03:29:29;93985.38;;;15.96;76.02
10261;BME280;5175;42.606;23.388;2022-09-09T03:31:56;93961.22;;;16.04;78.24
10261;BME280;5175;42.606;23.388;2022-09-09T03:34:23;93994.34;;;16.13;77.39
10261;BME280;5175;42.606;23.388;2022-09-09T03:36:51;93993.66;;;16.08;73.62
10261;BME280;5175;42.606;23.388;2022-09-09T03:39:18;93982.00;;;16.12;78.84
10261;BME280;5175;42.606;23.388;2022-09-09T03:41:44;93994.84;;;15.93;76.79
10261;BME280;5175;42.606;23.388;2022-09-09T03:44:13;93985.31;;;16.09;83.40
10261;BME280;5175;42.606;23.388;2022-09-09T03:46:40;93983.41;;;15.88;81.60
10261;BME280;5175;42.606;23.388;2022-09-09T03:49:07;93981.50;;;15.88;91.32
10261;BME280;5175;42.606;23.388;2022-09-09T03:51:35;93979.19;;;15.95;92.87
10261;BME280;5175;42.606;23.388;2022-09-09T03:54:05;93987.50;;;15.85;93.19
10261;BME280;5175;42.606;23.388;2022-09-09T03:56:34;93982.53;;;16.01;94.42
10261;BME280;5175;42.606;23.388;2022-09-09T03:59:01;93971.84;;;15.87;93.42
10261;BME280;5175;42.606;23.388;2022-09-09T04:01:28;93985.38;;;15.96;94.61
10261;BME280;5175;42.606;23.388;2022-09-09T04:03:54;93981.72;;;15.92;94.17
10261;BME280;5175;42.606;23.388;2022-09-09T04:06:23;93990.56;;;15.92;94.15
10261;BME280;5175;42.606;23.388;2022-09-09T04:08:50;93992.38;;;16.05;95.69
10261;BME280;5175;42.606;23.388;2022-09-09T04:11:19;93974.00;;;15.77;96.63
10261;BME280;5175;42.606;23.388;2022-09-09T04:13:46;93989.09;;;15.86;97.22
10261;BME280;5175;42.606;23.388;2022-09-09T04:16:13;93994.66;;;15.90;97.72
10261;BME280;5175;42.606;23.388;2022-09-09T04:18:39;93997.22;;;15.95;96.64
10261;BME280;5175;42.606;23.388;2022-09-09T04:21:07;93992.09;;;16.07;98.16
10261;BME280;5175;42.606;23.388;2022-09-09T04:23:35;93990.56;;;16.14;99.00
10261;BME280;5175;42.606;23.388;2022-09-09T04:26:02;93982.06;;;15.99;98.72
10261;BME280;5175;42.606;23.388;2022-09-09T04:28:32;93981.94;;;16.04;97.91
10261;BME280;5175;42.606;23.388;2022-09-09T04:31:04;93987.53;;;16.16;98.47
10261;BME280;5175;42.606;23.388;2022-09-09T04:33:31;93989.41;;;16.07;98.17
10261;BME280;5175;42.606;23.388;2022-09-09T04:35:58;93979.78;;;16.14;99.70
10261;BME280;5175;42.606;23.388;2022-09-09T04:38:25;93989.25;;;16.34;97.80
10261;BME280;5175;42.606;23.388;2022-09-09T04:40:51;93994.50;;;16.39;96.79
10261;BME280;5175;42.606;23.388;2022-09-09T04:43:19;93989.56;;;16.33;98.25
10261;BME280;5175;42.606;23.388;2022-09-09T04:45:50;93996.66;;;16.28;96.77
10261;BME280;5175;42.606;23.388;2022-09-09T04:48:17;94000.75;;;16.26;99.41
10261;BME280;5175;42.606;23.388;2022-09-09T04:50:44;94009.31;;;16.28;100.00
10261;BME280;5175;42.606;23.388;2022-09-09T04:53:11;94000.69;;;16.40;98.60
10261;BME280;5175;42.606;23.388;2022-09-09T04:55:38;93992.09;;;16.60;96.90
10261;BME280;5175;42.606;23.388;2022-09-09T04:58:05;93986.38;;;16.53;99.15
10261;BME280;5175;42.606;23.388;2022-09-09T05:00:33;93986.44;;;16.70;97.84
10261;BME280;5175;42.606;23.388;2022-09-09T05:03:04;93964.88;;;16.70;98.36
10261;BME280;5175;42.606;23.388;2022-09-09T05:05:31;93947.75;;;16.66;97.81
10261;BME280;5175;42.606;23.388;2022-09-09T05:08:01;93975.56;;;16.83;98.28
10261;BME280;5175;42.606;23.388;2022-09-09T05:10:28;93962.66;;;16.72;98.18
10261;BME280;5175;42.606;23.388;2022-09-09T05:12:55;93950.47;;;16.74;98.71
10261;BME280;5175;42.606;23.388;2022-09-09T05:15:22;93956.72;;;17.01;98.32
10261;BME280;5175;42.606;23.388;2022-09-09T05:17:48;93944.53;;;17.03;98.33
10261;BME280;5175;42.606;23.388;2022-09-09T05:20:19;93952.34;;;17.22;98.98
10261;BME280;5175;42.606;23.388;2022-09-09T05:22:46;93975.34;;;17.36;99.31
10261;BME280;5175;42.606;23.388;2022-09-09T05:25:13;93973.31;;;17.50;99.77
10261;BME280;5175;42.606;23.388;2022-09-09T05:27:40;93960.97;;;17.67;99.45
10261;BME280;5175;42.606;23.388;2022-09-09T05:30:08;93954.59;;;17.80;98.97
10261;BME280;5175;42.606;23.388;2022-09-09T05:32:34;93971.59;;;17.89;99.15
10261;BME280;5175;42.606;23.388;2022-09-09T05:35:02;93963.31;;;18.11;99.36
10261;BME280;5175;42.606;23.388;2022-09-09T05:37:31;93961.56;;;18.06;98.89
10261;BME280;5175;42.606;23.388;2022-09-09T05:39:58;93955.03;;;18.16;99.34
10261;BME280;5175;42.606;23.388;2022-09-09T05:42:29;93964.22;;;18.24;99.58
10261;BME280;5175;42.606;23.388;2022-09-09T05:44:56;93959.91;;;18.40;99.08
10261;BME280;5175;42.606;23.388;2022-09-09T05:47:23;93961.50;;;18.49;99.52
10261;BME280;5175;42.606;23.388;2022-09-09T05:49:53;93966.59;;;18.51;99.16
10261;BME280;5175;42.606;23.388;2022-09-09T05:52:19;93934.66;;;18.36;99.16
10261;BME280;5175;42.606;23.388;2022-09-09T05:54:47;93992.56;;;18.72;99.16
10261;BME280;5175;42.606;23.388;2022-09-09T05:57:14;93984.44;;;18.81;98.71
10261;BME280;5175;42.606;23.388;2022-09-09T05:59:41;93984.25;;;18.86;98.86
10261;BME280;5175;42.606;23.388;2022-09-09T06:02:08;93981.03;;;18.93;98.41
10261;BME280;5175;42.606;23.388;2022-09-09T06:04:35;93986.56;;;19.05;100.00
10261;BME280;5175;42.606;23.388;2022-09-09T06:07:02;93992.91;;;19.09;99.95
10261;BME280;5175;42.606;23.388;2022-09-09T06:09:29;93990.28;;;19.21;98.87
10261;BME280;5175;42.606;23.388;2022-09-09T06:11:57;94006.56;;;19.50;98.07
10261;BME280;5175;42.606;23.388;2022-09-09T06:14:24;94008.56;;;19.62;98.13
10261;BME280;5175;42.606;23.388;2022-09-09T06:16:52;94012.13;;;19.74;97.91
10261;BME280;5175;42.606;23.388;2022-09-09T06:19:19;94003.47;;;20.02;97.85
10261;BME280;5175;42.606;23.388;2022-09-09T06:21:46;94006.56;;;20.33;98.60
10261;BME280;5175;42.606;23.388;2022-09-09T06:24:13;94006.31;;;20.58;96.99
10261;BME280;5175;42.606;23.388;2022-09-09T06:26:42;94009.78;;;20.92;95.12
10261;BME280;5175;42.606;23.388;2022-09-09T06:29:12;94013.38;;;20.96;90.40
10261;BME280;5175;42.606;23.388;2022-09-09T06:31:38;94013.75;;;21.06;88.83
10261;BME280;5175;42.606;23.388;2022-09-09T06:34:07;94007.66;;;21.21;86.66
10261;BME280;5175;42.606;23.388;2022-09-09T06:36:36;94006.69;;;21.26;88.06
10261;BME280;5175;42.606;23.388;2022-09-09T06:39:03;94008.69;;;21.41;87.81
10261;BME280;5175;42.606;23.388;2022-09-09T06:41:31;94004.59;;;21.71;86.44
10261;BME280;5175;42.606;23.388;2022-09-09T06:43:59;94001.75;;;21.68;85.07
10261;BME280;5175;42.606;23.388;2022-09-09T06:46:29;93996.09;;;21.85;83.83
10261;BME280;5175;42.606;23.388;2022-09-09T06:48:58;94012.50;;;22.01;80.96
10261;BME280;5175;42.606;23.388;2022-09-09T06:51:27;93997.06;;;22.05;82.70
10261;BME280;5175;42.606;23.388;2022-09-09T06:53:55;94010.06;;;22.11;80.65
10261;BME280;5175;42.606;23.388;2022-09-09T06:56:24;94007.88;;;22.29;81.88
10261;BME280;5175;42.606;23.388;2022-09-09T06:58:54;94033.91;;;22.58;76.92
10261;BME280;5175;42.606;23.388;2022-09-09T07:01:22;94036.97;;;22.84;81.06
10261;BME280;5175;42.606;23.388;2022-09-09T07:03:52;94030.84;;;22.87;81.98
10261;BME280;5175;42.606;23.388;2022-09-09T07:06:21;94031.72;;;23.06;79.16
10261;BME280;5175;42.606;23.388;2022-09-09T07:08:49;94031.22;;;23.32;78.19
10261;BME280;5175;42.606;23.388;2022-09-09T07:11:18;94038.41;;;23.25;77.38
10261;BME280;5175;42.606;23.388;2022-09-09T07:13:45;94033.25;;;23.35;76.72
10261;BME280;5175;42.606;23.388;2022-09-09T07:16:13;94032.19;;;23.24;75.17
10261;BME280;5175;42.606;23.388;2022-09-09T07:18:40;94003.13;;;23.28;76.26
10261;BME280;5175;42.606;23.388;2022-09-09T07:21:11;94027.56;;;23.56;73.64
10261;BME280;5175;42.606;23.388;2022-09-09T07:23:38;94029.69;;;23.47;71.18
10261;BME280;5175;42.606;23.388;2022-09-09T07:26:08;94027.81;;;23.51;72.88
10261;BME280;5175;42.606;23.388;2022-09-09T07:28:35;94011.47;;;23.66;72.45
10261;BME280;5175;42.606;23.388;2022-09-09T07:31:02;94023.72;;;23.76;70.17
10261;BME280;5175;42.606;23.388;2022-09-09T07:33:30;94023.28;;;23.90;72.88
10261;BME280;5175;42.606;23.388;2022-09-09T07:36:02;94018.91;;;23.85;71.58
10261;BME280;5175;42.606;23.388;2022-09-09T07:38:31;94016.59;;;23.87;71.21
10261;BME280;5175;42.606;23.388;2022-09-09T07:41:03;94025.16;;;24.05;68.09
10261;BME280;5175;42.606;23.388;2022-09-09T07:43:31;94018.41;;;23.99;70.39
10261;BME280;5175;42.606;23.388;2022-09-09T07:45:59;94023.84;;;24.14;71.92
10261;BME280;5175;42.606;23.388;2022-09-09T07:48:26;94026.94;;;24.32;71.61
10261;BME280;5175;42.606;23.388;2022-09-09T07:51:03;94023.63;;;24.42;69.30
10261;BME280;5175;42.606;23.388;2022-09-09T07:53:32;94018.69;;;24.67;68.13
10261;BME280;5175;42.606;23.388;2022-09-09T07:56:03;94042.06;;;25.06;66.58
10261;BME280;5175;42.606;23.388;2022-09-09T07:58:30;94034.53;;;25.00;66.82
10261;BME280;5175;42.606;23.388;2022-09-09T08:00:57;94031.06;;;25.03;63.13
10261;BME280;5175;42.606;23.388;2022-09-09T08:03:24;94026.66;;;25.17;65.66
10261;BME280;5175;42.606;23.388;2022-09-09T08:05:51;94027.31;;;25.33;61.93
10261;BME280;5175;42.606;23.388;2022-09-09T08:08:18;94019.53;;;25.35;58.69
10261;BME280;5175;42.606;23.388;2022-09-09T08:10:47;94026.22;;;25.38;60.56
10261;BME280;5175;42.606;23.388;2022-09-09T08:13:14;94024.94;;;25.77;61.21
10261;BME280;5175;42.606;23.388;2022-09-09T08:15:43;94021.94;;;25.86;60.31
10261;BME280;5175;42.606;23.388;2022-09-09T08:18:10;94023.25;;;25.69;59.10
10261;BME280;5175;42.606;23.388;2022-09-09T08:20:37;94018.69;;;25.77;61.46
10261;BME280;5175;42.606;23.388;2022-09-09T08:23:04;94026.03;;;25.73;59.39
10261;BME280;5175;42.606;23.388;2022-09-09T08:25:31;94029.09;;;25.68;61.59
10261;BME280;5175;42.606;23.388;2022-09-09T08:28:00;94016.16;;;25.65;61.48
10261;BME280;5175;42.606;23.388;2022-09-09T08:30:27;94025.97;;;25.69;61.32
10261;BME280;5175;42.606;23.388;2022-09-09T08:32:53;94025.09;;;25.62;61.74
10261;BME280;5175;42.606;23.388;2022-09-09T08:35:20;94024.28;;;25.61;60.83
10261;BME280;5175;42.606;23.388;2022-09-09T08:37:47;94019.81;;;25.76;56.73
10261;BME280;5175;42.606;23.388;2022-09-09T08:40:23;94021.69;;;25.45;56.69
10261;BME280;5175;42.606;23.388;2022-09-09T08:42:55;94029.25;;;25.33;58.53
10261;BME280;5175;42.606;23.388;2022-09-09T08:45:31;94026.00;;;25.24;58.02
10261;BME280;5175;42.606;23.388;2022-09-09T08:48:14;94022.59;;;25.30;60.59
10261;BME280;5175;42.606;23.388;2022-09-09T08:50:44;94015.00;;;25.20;59.63
10261;BME280;5175;42.606;23.388;2022-09-09T08:53:16;94015.53;;;25.07;62.78
10261;BME280;5175;42.606;23.388;2022-09-09T08:55:47;94009.34;;;25.10;60.29
10261;BME280;5175;42.606;23.388;2022-09-09T08:58:16;94010.78;;;24.81;60.84
10261;BME280;5175;42.606;23.388;2022-09-09T09:01:02;94004.38;;;24.73;63.67
10261;BME280;5175;42.606;23.388;2022-09-09T09:03:40;94012.59;;;24.96;60.93
10261;BME280;5175;42.606;23.388;2022-09-09T09:06:23;94005.16;;;24.93;62.24
10261;BME280;5175;42.606;23.388;2022-09-09T09:09:00;94015.38;;;25.19;59.26
10261;BME280;5175;42.606;23.388;2022-09-09T09:11:34;94016.13;;;25.19;60.01
10261;BME280;5175;42.606;23.388;2022-09-09T09:14:03;94012.34;;;25.46;57.54
10261;BME280;5175;42.606;23.388;2022-09-09T09:16:49;94016.81;;;25.58;57.96
10261;BME280;5175;42.606;23.388;2022-09-09T09:19:17;94002.03;;;25.14;59.46
10261;BME280;5175;42.606;23.388;2022-09-09T09:21:53;94017.13;;;25.53;56.91
10261;BME280;5175;42.606;23.388;2022-09-09T09:24:27;94013.56;;;25.49;57.66
10261;BME280;5175;42.606;23.388;2022-09-09T09:27:00;94003.06;;;25.51;56.56
10261;BME280;5175;42.606;23.388;2022-09-09T09:29:34;94007.09;;;25.61;56.14
10261;BME280;5175;42.606;23.388;2022-09-09T09:32:03;93993.09;;;25.39;58.15
10261;BME280;5175;42.606;23.388;2022-09-09T09:34:30;94008.03;;;25.23;57.87
10261;BME280;5175;42.606;23.388;2022-09-09T09:36:57;94007.22;;;25.00;57.76
10261;BME280;5175;42.606;23.388;2022-09-09T09:39:28;94007.31;;;25.03;59.67
10261;BME280;5175;42.606;23.388;2022-09-09T09:41:55;94000.19;;;25.21;58.36
10261;BME280;5175;42.606;23.388;2022-09-09T09:44:26;94007.47;;;25.36;59.29
10261;BME280;5175;42.606;23.388;2022-09-09T09:47:04;94002.56;;;25.45;57.60
10261;BME280;5175;42.606;23.388;2022-09-09T09:49:33;93974.00;;;25.43;57.14
10261;BME280;5175;42.606;23.388;2022-09-09T09:52:00;93968.38;;;25.55;58.38
10261;BME280;5175;42.606;23.388;2022-09-09T09:54:29;93993.50;;;26.17;58.25
10261;BME280;5175;42.606;23.388;2022-09-09T09:57:08;93984.34;;;26.35;56.37
10261;BME280;5175;42.606;23.388;2022-09-09T09:59:36;93996.69;;;26.55;54.62
10261;BME280;5175;42.606;23.388;2022-09-09T10:02:16;93996.06;;;26.69;53.53
10261;BME280;5175;42.606;23.388;2022-09-09T10:04:45;93984.25;;;26.95;55.49
10261;BME280;5175;42.606;23.388;2022-09-09T10:07:18;93985.06;;;26.95;55.85
10261;BME280;5175;42.606;23.388;2022-09-09T10:09:53;93991.38;;;27.03;55.22
10261;BME280;5175;42.606;23.388;2022-09-09T10:12:32;93982.78;;;27.04;53.78
10261;BME280;5175;42.606;23.388;2022-09-09T10:15:21;93995.63;;;26.97;52.45
10261;BME280;5175;42.606;23.388;2022-09-09T10:17:56;93993.00;;;26.74;54.17
10261;BME280;5175;42.606;23.388;2022-09-09T10:20:35;93995.25;;;26.65;53.76
10261;BME280;5175;42.606;23.388;2022-09-09T10:23:19;94002.06;;;26.45;54.43
10261;BME280;5175;42.606;23.388;2022-09-09T10:26:03;93998.06;;;26.39;56.78
10261;BME280;5175;42.606;23.388;2022-09-09T10:28:48;93997.69;;;26.10;56.61
10261;BME280;5175;42.606;23.388;2022-09-09T10:31:24;93994.75;;;26.23;55.78
10261;BME280;5175;42.606;23.388;2022-09-09T10:34:00;94005.31;;;26.24;55.28
10261;BME280;5175;42.606;23.388;2022-09-09T10:36:35;94004.16;;;26.25;55.86
10261;BME280;5175;42.606;23.388;2022-09-09T10:39:18;93997.06;;;26.21;56.45
10261;BME280;5175;42.606;23.388;2022-09-09T10:41:59;93994.16;;;26.10;56.30
10261;BME280;5175;42.606;23.388;2022-09-09T10:44:49;94002.34;;;26.10;56.32
10261;BME280;5175;42.606;23.388;2022-09-09T10:47:34;94005.31;;;25.45;56.75
10261;BME280;5175;42.606;23.388;2022-09-09T10:50:27;94004.25;;;25.31;57.20
10261;BME280;5175;42.606;23.388;2022-09-09T10:53:02;94000.03;;;25.11;59.62
10261;BME280;5175;42.606;23.388;2022-09-09T10:55:38;93999.81;;;25.00;61.88
10261;BME280;5175;42.606;23.388;2022-09-09T10:58:10;93988.13;;;25.00;60.70
10261;BME280;5175;42.606;23.388;2022-09-09T11:00:41;93995.56;;;25.03;60.31
10261;BME280;5175;42.606;23.388;2022-09-09T11:03:19;93991.88;;;25.14;61.29
10261;BME280;5175;42.606;23.388;2022-09-09T11:05:50;93997.78;;;25.16;60.44
10261;BME280;5175;42.606;23.388;2022-09-09T11:08:21;93999.22;;;25.33;60.75
10261;BME280;5175;42.606;23.388;2022-09-09T11:10:53;93997.88;;;25.23;61.88
10261;BME280;5175;42.606;23.388;2022-09-09T11:13:30;94001.84;;;25.26;60.29
10261;BME280;5175;42.606;23.388;2022-09-09T11:16:08;94000.03;;;25.11;58.95
10261;BME280;5175;42.606;23.388;2022-09-09T11:18:41;93997.31;;;24.92;60.19
10261;BME280;5175;42.606;23.388;2022-09-09T11:21:15;93997.63;;;24.86;61.64
10261;BME280;5175;42.606;23.388;2022-09-09T11:23:49;93989.38;;;24.64;61.56
10261;BME280;5175;42.606;23.388;2022-09-09T11:26:27;93988.38;;;24.72;63.82
10261;BME280;5175;42.606;23.388;2022-09-09T11:29:09;93985.97;;;24.89;64.15
10261;BME280;5175;42.606;23.388;2022-09-09T11:31:46;93968.88;;;24.93;63.16
10261;BME280;5175;42.606;23.388;2022-09-09T11:34:31;93988.59;;;25.05;60.98
10261;BME280;5175;42.606;23.388;2022-09-09T11:37:24;93951.50;;;25.04;63.66
10261;BME280;5175;42.606;23.388;2022-09-09T11:40:18;93948.84;;;25.08;62.81
10261;BME280;5175;42.606;23.388;2022-09-09T11:42:46;93950.91;;;25.14;63.25
10261;BME280;5175;42.606;23.388;2022-09-09T11:45:23;93960.75;;;25.19;59.71
10261;BME280;5175;42.606;23.388;2022-09-09T11:47:52;93955.34;;;25.22;60.33
10261;BME280;5175;42.606;23.388;2022-09-09T11:50:32;93932.41;;;24.81;66.19
10261;BME280;5175;42.606;23.388;2022-09-09T11:53:19;93929.75;;;24.85;66.15
10261;BME280;5175;42.606;23.388;2022-09-09T11:56:09;93922.41;;;24.89;66.19
10261;BME280;5175;42.606;23.388;2022-09-09T11:58:39;93905.00;;;24.97;65.85
10261;BME280;5175;42.606;23.388;2022-09-09T12:01:15;93894.31;;;25.11;63.48
10261;BME280;5175;42.606;23.388;2022-09-09T12:03:44;93904.91;;;24.94;66.61
10261;BME280;5175;42.606;23.388;2022-09-09T12:06:15;93880.56;;;24.81;66.72
10261;BME280;5175;42.606;23.388;2022-09-09T12:08:45;93912.13;;;25.28;65.42
10261;BME280;5175;42.606;23.388;2022-09-09T12:11:24;93924.19;;;25.49;61.52
10261;BME280;5175;42.606;23.388;2022-09-09T12:13:55;93916.72;;;25.46;61.68
10261;BME280;5175;42.606;23.388;2022-09-09T12:16:30;93918.19;;;25.67;61.42
10261;BME280;5175;42.606;23.388;2022-09-09T12:19:12;93905.53;;;25.55;60.41
10261;BME280;5175;42.606;23.388;2022-09-09T12:21:45;93902.97;;;25.43;64.48
10261;BME280;5175;42.606;23.388;2022-09-09T12:24:18;93899.03;;;25.40;65.17
10261;BME280;5175;42.606;23.388;2022-09-09T12:26:53;93905.31;;;25.67;60.99
10261;BME280;5175;42.606;23.388;2022-09-09T12:29:27;93912.97;;;25.58;62.04
10261;BME280;5175;42.606;23.388;2022-09-09T12:32:02;93896.72;;;25.42;61.71
10261;BME280;5175;42.606;23.388;2022-09-09T12:34:37;93901.47;;;25.45;62.10
10261;BME280;5175;42.606;23.388;2022-09-09T12:37:08;93894.06;;;25.76;60.27
10261;BME280;5175;42.606;23.388;2022-09-09T12:39:43;93875.19;;;25.64;61.90
10261;BME280;5175;42.606;23.388;2022-09-09T12:42:18;93887.31;;;25.66;59.99
10261;BME280;5175;42.606;23.388;2022-09-09T12:44:52;93892.53;;;25.75;60.70
10261;BME280;5175;42.606;23.388;2022-09-09T12:47:21;93880.78;;;25.74;60.17
10261;BME280;5175;42.606;23.388;2022-09-09T12:49:50;93892.47;;;25.71;60.63
10261;BME280;5175;42.606;23.388;2022-09-09T12:52:24;93888.84;;;25.64;63.64
10261;BME280;5175;42.606;23.388;2022-09-09T12:54:52;93887.22;;;25.59;61.01
10261;BME280;5175;42.606;23.388;2022-09-09T12:57:22;93888.16;;;25.70;60.14
10261;BME280;5175;42.606;23.388;2022-09-09T12:59:51;93879.41;;;25.87;60.71
10261;BME280;5175;42.606;23.388;2022-09-09T13:02:20;93877.50;;;26.25;57.50
10261;BME280;5175;42.606;23.388;2022-09-09T13:04:48;93869.41;;;26.32;64.42
10261;BME280;5175;42.606;23.388;2022-09-09T13:07:16;93869.13;;;26.44;59.85
10261;BME280;5175;42.606;23.388;2022-09-09T13:09:43;93862.59;;;26.55;57.60
10261;BME280;5175;42.606;23.388;2022-09-09T13:12:14;93860.63;;;26.52;60.91
10261;BME280;5175;42.606;23.388;2022-09-09T13:14:45;93845.19;;;26.34;61.48
10261;BME280;5175;42.606;23.388;2022-09-09T13:17:19;93857.78;;;26.45;59.12
10261;BME280;5175;42.606;23.388;2022-09-09T13:19:47;93843.81;;;26.54;61.25
10261;BME280;5175;42.606;23.388;2022-09-09T13:22:21;93854.28;;;26.45;62.91
10261;BME280;5175;42.606;23.388;2022-09-09T13:24:59;93845.75;;;26.53;59.75
10261;BME280;5175;42.606;23.388;2022-09-09T13:27:30;93848.66;;;26.71;56.96